aviador You're here:

EBCV Decoded Metar

CHIEVRES in BELGIUM
Report Time2017-08-06 07:55:00
UTC Time2017-08-19 20:32:29
Flight Rules Old
Wind220° at 04 kt
W.Decomp.*RWY 26: 3.0 kt HW 2.6 kt LCW
W.Rank220° ranks 2
Current wind is below 220° avg. (9.1)
Visibility9999 m
Phenomena:N/A
Clouds:N/A
Expected CloudBase > 1,600 ft AGL from Temp-Dew spread
CeilingNone
Temp16°C (ISA +1)
Dew Point12°C (77% RH)
AAT15.2°C
QNH1024 hPa
Density Alt190 ft
Elevation207 ft
Report Wrong Elevation
Raw Report
METAR EBCV 060755Z AUTO 22004KT 9999 NCD 16/12 Q1024 BLU=

Extra information for EBCV:More info

Metar Taf Metar & Taf Last 4 Metars F.Rules Stats Wind Profile Meteogram Temp Stats Airport Information Weather charts Add Link Nearby VenuesMetar ALERT Operation Metar Decoded Social comments